Time;durP1;ratioP1;P1;durP2;ratioP2;P2;SDS_P1;SDS_P2;PMS_P1;PMS_P2;Temp;Humidity;BMP_temperature;BMP_pressure;BME280_temperature;BME280_humidity;BME280_pressure;Samples;Min_cycle;Max_cycle;Signal;HPM_P1;HPM_P2
2023/12/01 00:01:21;;;;;;;5.57;2.58;;;;;;;8.14;100.00;92702.16;5063830;28;20044;-76
2023/12/01 00:03:48;;;;;;;8.77;4.68;;;;;;;8.18;100.00;92694.09;5047267;28;20102;-76
2023/12/01 00:06:18;;;;;;;5.43;2.67;;;;;;;8.09;100.00;92698.63;5050956;28;20094;-76
2023/12/01 00:08:46;;;;;;;8.10;3.45;;;;;;;8.15;100.00;92710.63;5050483;28;20048;-76
2023/12/01 00:11:13;;;;;;;5.20;2.35;;;;;;;8.27;100.00;92716.66;5050404;28;20045;-76
2023/12/01 00:13:40;;;;;;;7.13;3.88;;;;;;;8.06;100.00;92681.94;5048405;28;20126;-75
2023/12/01 00:16:08;;;;;;;6.18;2.38;;;;;;;8.31;100.00;92709.34;5046998;28;20085;-76
2023/12/01 00:18:35;;;;;;;5.10;2.13;;;;;;;8.42;100.00;92715.53;5047473;28;20037;-75
2023/12/01 00:21:02;;;;;;;6.53;2.92;;;;;;;8.45;100.00;92704.91;5047414;28;20056;-75
2023/12/01 00:23:30;;;;;;;8.90;3.63;;;;;;;8.43;100.00;92694.09;5050914;28;20044;-75
2023/12/01 00:26:02;;;;;;;6.38;3.10;;;;;;;8.40;100.00;92690.19;5057776;28;20053;-76
2023/12/01 00:28:29;;;;;;;5.78;3.03;;;;;;;8.57;100.00;92724.72;5055363;28;20045;-76
2023/12/01 00:30:56;;;;;;;7.03;2.80;;;;;;;8.59;100.00;92712.50;5049312;28;20049;-76
2023/12/01 00:33:24;;;;;;;9.88;4.70;;;;;;;8.51;100.00;92716.06;5048235;28;20045;-76
2023/12/01 00:35:51;;;;;;;7.70;3.28;;;;;;;8.51;100.00;92719.44;5049059;28;20506;-76
2023/12/01 00:38:19;;;;;;;3.83;2.22;;;;;;;8.50;100.00;92720.41;5047090;28;20049;-75
2023/12/01 00:40:46;;;;;;;4.38;2.80;;;;;;;8.41;100.00;92712.22;5057514;28;20663;-76
2023/12/01 00:43:14;;;;;;;8.27;2.50;;;;;;;8.52;100.00;92708.22;5052672;28;20063;-75
2023/12/01 00:45:41;;;;;;;5.80;1.80;;;;;;;8.57;100.00;92715.28;5057637;28;20587;-76
2023/12/01 00:48:08;;;;;;;4.93;2.00;;;;;;;8.60;100.00;92714.84;5058514;28;20162;-76
2023/12/01 00:50:35;;;;;;;5.20;2.58;;;;;;;8.59;100.00;92705.63;5056597;28;20332;-76
2023/12/01 00:53:02;;;;;;;4.97;2.25;;;;;;;8.55;100.00;92707.81;5051361;28;20049;-76
2023/12/01 00:55:29;;;;;;;4.30;2.58;;;;;;;8.69;100.00;92718.72;5050561;28;20135;-75
2023/12/01 00:57:56;;;;;;;5.68;1.95;;;;;;;8.70;100.00;92729.75;5052700;28;20049;-75
2023/12/01 01:00:24;;;;;;;5.68;1.80;;;;;;;8.73;100.00;92731.88;5051519;28;20044;-76
2023/12/01 01:02:51;;;;;;;8.48;4.15;;;;;;;8.56;100.00;92685.53;5050951;28;20841;-76
2023/12/01 01:05:18;;;;;;;5.03;2.75;;;;;;;8.69;100.00;92718.72;5058724;28;20070;-76
2023/12/01 01:07:45;;;;;;;5.88;2.13;;;;;;;8.76;100.00;92713.56;5055080;28;20418;-76
2023/12/01 01:10:12;;;;;;;6.95;3.90;;;;;;;8.77;100.00;92714.31;5065700;28;20049;-76
2023/12/01 01:12:39;;;;;;;5.75;1.80;;;;;;;8.78;100.00;92718.44;5057310;28;20059;-76
2023/12/01 01:15:06;;;;;;;5.25;2.28;;;;;;;8.85;100.00;92721.75;5064482;28;20055;-76
2023/12/01 01:17:35;;;;;;;13.40;7.35;;;;;;;8.88;100.00;92721.31;5054653;28;20045;-76
2023/12/01 01:20:02;;;;;;;5.18;1.95;;;;;;;8.72;100.00;92704.72;5052064;28;20040;-76
2023/12/01 01:22:29;;;;;;;3.83;2.10;;;;;;;8.75;100.00;92706.84;5050436;28;20049;-76
2023/12/01 01:24:56;;;;;;;6.65;1.80;;;;;;;8.78;100.00;92718.44;5056849;28;20044;-76
2023/12/01 01:27:23;;;;;;;4.82;1.58;;;;;;;8.86;100.00;92715.63;5052939;28;20869;-76
2023/12/01 01:29:51;;;;;;;4.18;1.73;;;;;;;8.79;100.00;92722.56;5054245;28;20052;-76
2023/12/01 01:32:17;;;;;;;7.55;3.70;;;;;;;8.83;100.00;92705.78;5052493;28;20770;-77
2023/12/01 01:34:46;;;;;;;3.25;1.50;;;;;;;8.76;100.00;92695.63;5056185;28;20164;-78
2023/12/01 01:37:13;;;;;;;3.40;1.40;;;;;;;8.78;100.00;92705.66;5054529;28;20044;-79
2023/12/01 01:39:40;;;;;;;4.82;2.20;;;;;;;8.81;100.00;92695.75;5050834;28;20615;-78
2023/12/01 01:42:07;;;;;;;6.57;2.45;;;;;;;8.83;100.00;92703.25;5050018;28;20059;-77
2023/12/01 01:44:34;;;;;;;6.45;2.90;;;;;;;8.92;100.00;92707.09;5050683;28;20051;-77
2023/12/01 01:47:03;;;;;;;5.53;2.22;;;;;;;9.02;100.00;92703.28;5053532;28;20068;-77
2023/12/01 01:49:29;;;;;;;5.18;2.40;;;;;;;8.91;100.00;92699.63;5051532;28;20049;-77
2023/12/01 01:52:00;;;;;;;4.57;2.58;;;;;;;9.02;100.00;92700.72;5049755;28;20049;-77
2023/12/01 01:54:27;;;;;;;5.78;2.05;;;;;;;8.90;100.00;92698.84;5049293;28;20083;-77
2023/12/01 01:56:54;;;;;;;6.57;2.20;;;;;;;9.03;100.00;92697.16;5057198;28;20122;-77
2023/12/01 01:59:22;;;;;;;4.45;1.65;;;;;;;9.08;100.00;92684.50;5066156;28;20098;-78
2023/12/01 02:01:49;;;;;;;3.85;1.55;;;;;;;8.99;100.00;92670.38;5065906;28;20483;-76
2023/12/01 02:04:17;;;;;;;5.53;1.88;;;;;;;9.07;100.00;92667.53;5058632;28;20052;-77
2023/12/01 02:06:45;;;;;;;7.03;3.47;;;;;;;9.08;100.00;92669.13;5050849;28;20053;-78
2023/12/01 02:09:14;;;;;;;4.28;1.70;;;;;;;9.06;100.00;92669.31;5058453;28;20048;-77
2023/12/01 02:11:41;;;;;;;5.32;2.08;;;;;;;9.09;100.00;92663.75;5053339;28;20425;-78
2023/12/01 02:14:08;;;;;;;3.90;1.75;;;;;;;9.06;100.00;92660.84;5050611;28;20422;-77
2023/12/01 02:16:35;;;;;;;4.32;2.17;;;;;;;9.10;100.00;92654.31;5064512;28;20059;-76
2023/12/01 02:19:02;;;;;;;12.82;4.97;;;;;;;9.07;100.00;92652.94;5049873;28;20045;-77
2023/12/01 02:21:37;;;;;;;9.70;4.63;;;;;;;9.17;100.00;92665.25;5050127;28;20044;-77
2023/12/01 02:24:04;;;;;;;7.90;4.40;;;;;;;9.13;100.00;92664.13;5057391;28;20055;-77
2023/12/01 02:26:33;;;;;;;9.63;4.95;;;;;;;9.18;100.00;92666.06;5049167;28;20049;-77
2023/12/01 02:29:03;;;;;;;8.00;5.05;;;;;;;9.33;100.00;92671.59;5049473;28;20056;-76
2023/12/01 02:31:30;;;;;;;13.50;9.48;;;;;;;9.27;100.00;92666.53;5055222;28;20049;-76
2023/12/01 02:33:57;;;;;;;8.70;3.72;;;;;;;9.31;100.00;92667.69;5048690;28;20045;-77
2023/12/01 02:36:24;;;;;;;5.55;2.40;;;;;;;9.25;100.00;92671.88;5056686;28;20051;-76
2023/12/01 02:38:53;;;;;;;3.70;2.00;;;;;;;9.24;100.00;92670.31;5055925;28;20077;-76
2023/12/01 02:41:19;;;;;;;5.72;1.80;;;;;;;9.22;100.00;92664.63;5048582;28;20521;-76
2023/12/01 02:43:47;;;;;;;6.32;2.13;;;;;;;9.28;100.00;92655.28;5049621;28;20433;-77
2023/12/01 02:46:14;;;;;;;6.20;2.60;;;;;;;9.30;100.00;92646.38;5055436;28;20080;-76
2023/12/01 02:48:41;;;;;;;4.80;2.28;;;;;;;9.29;100.00;92665.34;5066914;28;20417;-76
2023/12/01 02:51:09;;;;;;;4.80;2.78;;;;;;;9.30;100.00;92656.63;5066090;28;20417;-76
2023/12/01 02:53:36;;;;;;;3.85;1.83;;;;;;;9.31;100.00;92655.63;5054466;28;20049;-76
2023/12/01 02:56:05;;;;;;;4.03;2.03;;;;;;;9.40;100.00;92658.69;5057120;28;20409;-76
2023/12/01 02:58:31;;;;;;;4.00;1.60;;;;;;;9.44;100.00;92670.09;5050870;28;20055;-76
2023/12/01 03:01:00;;;;;;;5.40;2.00;;;;;;;9.55;100.00;92675.50;5048219;28;20047;-76
2023/12/01 03:03:27;;;;;;;3.17;1.55;;;;;;;9.40;100.00;92647.66;5050644;28;20044;-76
2023/12/01 03:05:53;;;;;;;5.72;2.33;;;;;;;9.48;100.00;92657.63;5048138;28;20040;-76
2023/12/01 03:08:20;;;;;;;3.42;1.88;;;;;;;9.36;100.00;92644.75;5048241;28;20051;-76
2023/12/01 03:10:48;;;;;;;5.88;1.50;;;;;;;9.43;100.00;92662.59;5055942;28;20052;-76
2023/12/01 03:13:16;;;;;;;5.50;1.95;;;;;;;9.45;100.00;92670.88;5047892;28;20041;-78
2023/12/01 03:15:43;;;;;;;5.10;2.42;;;;;;;9.47;100.00;92674.00;5052815;28;20564;-78
2023/12/01 03:18:10;;;;;;;4.45;1.92;;;;;;;9.62;100.00;92682.09;5058354;28;20055;-78
2023/12/01 03:20:37;;;;;;;5.28;1.70;;;;;;;9.60;100.00;92668.72;5061764;28;20055;-77
2023/12/01 03:23:04;;;;;;;3.22;1.88;;;;;;;9.55;100.00;92647.28;5052044;28;20060;-78
2023/12/01 03:25:31;;;;;;;6.72;1.88;;;;;;;9.63;100.00;92650.31;5048034;28;20422;-77
2023/12/01 03:27:58;;;;;;;4.00;1.77;;;;;;;9.61;100.00;92644.66;5049690;28;20045;-78
2023/12/01 03:30:26;;;;;;;3.80;1.95;;;;;;;9.69;100.00;92650.47;5049855;28;20051;-76
2023/12/01 03:32:54;;;;;;;5.82;3.28;;;;;;;9.69;100.00;92653.03;5047991;28;20067;-77
2023/12/01 03:35:24;;;;;;;3.03;1.70;;;;;;;9.69;100.00;92658.94;5048088;28;20048;-77
2023/12/01 03:37:55;;;;;;;5.05;2.92;;;;;;;9.71;100.00;92664.63;5048165;28;20076;-78
2023/12/01 03:40:22;;;;;;;4.57;1.70;;;;;;;9.39;100.00;92617.91;5047851;28;20417;-77
2023/12/01 03:42:50;;;;;;;4.88;2.05;;;;;;;9.72;100.00;92660.28;5053208;28;20048;-77
2023/12/01 03:45:18;;;;;;;5.53;2.70;;;;;;;9.59;100.00;92635.59;5048120;28;20517;-79
2023/12/01 03:47:47;;;;;;;3.88;1.63;;;;;;;9.82;100.00;92652.06;5050185;28;20058;-77
2023/12/01 03:50:15;;;;;;;6.55;2.70;;;;;;;9.76;100.00;92658.84;5058844;28;20055;-78
2023/12/01 03:52:42;;;;;;;4.88;1.88;;;;;;;9.77;100.00;92668.13;5056380;28;20052;-77
2023/12/01 03:55:10;;;;;;;6.88;1.90;;;;;;;9.74;100.00;92656.50;5064252;28;20593;-77
2023/12/01 03:57:37;;;;;;;4.32;2.13;;;;;;;9.82;100.00;92673.34;5047899;28;20059;-78
2023/12/01 04:00:08;;;;;;;5.57;2.97;;;;;;;9.83;100.00;92658.75;5056254;28;20418;-78
2023/12/01 04:02:38;;;;;;;3.22;1.85;;;;;;;9.83;100.00;92643.38;5048543;28;21063;-78
2023/12/01 04:05:07;;;;;;;4.15;1.70;;;;;;;9.86;100.00;92653.97;5048200;28;20040;-78
2023/12/01 04:07:38;;;;;;;4.55;1.80;;;;;;;9.67;100.00;92617.34;5051459;28;20049;-79
2023/12/01 04:10:10;;;;;;;5.85;1.88;;;;;;;9.94;100.00;92646.94;5049679;28;20056;-77
2023/12/01 04:12:43;;;;;;;3.33;1.70;;;;;;;10.00;100.00;92658.94;5052407;28;20082;-78
2023/12/01 04:15:12;;;;;;;6.90;1.73;;;;;;;9.99;100.00;92663.28;5054224;28;20045;-78
2023/12/01 04:17:42;;;;;;;4.10;1.70;;;;;;;10.02;100.00;92657.72;5052421;28;20615;-78
2023/12/01 04:20:20;;;;;;;4.88;1.90;;;;;;;10.03;100.00;92663.59;5052264;28;20410;-78
2023/12/01 04:22:49;;;;;;;5.72;2.28;;;;;;;10.09;100.00;92667.84;5053438;28;20060;-78
2023/12/01 04:25:16;;;;;;;4.78;2.38;;;;;;;10.15;100.00;92661.09;5059803;28;20219;-78
2023/12/01 04:27:44;;;;;;;4.55;2.20;;;;;;;10.05;100.00;92648.78;5051088;28;20052;-79
2023/12/01 04:30:15;;;;;;;5.35;1.67;;;;;;;9.93;100.00;92635.13;5056334;28;20727;-78
2023/12/01 04:32:43;;;;;;;6.93;2.10;;;;;;;10.10;100.00;92645.56;5060820;28;20053;-78
2023/12/01 04:35:12;;;;;;;4.97;2.85;;;;;;;10.07;100.00;92630.59;5051228;28;20045;-78
2023/12/01 04:37:40;;;;;;;4.97;2.30;;;;;;;10.01;100.00;92611.75;5055251;28;20981;-78
2023/12/01 04:40:14;;;;;;;3.92;1.83;;;;;;;10.16;100.00;92624.94;5064502;28;20518;-78
2023/12/01 04:42:45;;;;;;;3.58;1.30;;;;;;;10.17;100.00;92623.13;5065037;28;21052;-78
2023/12/01 04:45:12;;;;;;;2.83;1.42;;;;;;;10.28;100.00;92635.19;5063110;28;20844;-78
2023/12/01 04:47:41;;;;;;;2.85;1.52;;;;;;;10.33;100.00;92629.41;5060019;28;20531;-78
2023/12/01 04:50:12;;;;;;;4.10;2.17;;;;;;;10.32;100.00;92622.69;5066127;28;20052;-78
2023/12/01 04:52:42;;;;;;;4.50;1.90;;;;;;;10.32;100.00;92632.19;5063541;28;20052;-78
2023/12/01 04:55:10;;;;;;;4.80;1.80;;;;;;;10.24;100.00;92618.66;5060783;28;20507;-78
2023/12/01 04:57:37;;;;;;;3.17;1.60;;;;;;;10.36;100.00;92633.31;5061360;28;20107;-78
2023/12/01 05:00:20;;;;;;;4.50;2.10;;;;;;;10.51;100.00;92638.06;5056650;28;20417;-78
2023/12/01 05:02:48;;;;;;;5.78;1.77;;;;;;;10.47;100.00;92626.66;5050853;28;20078;-78
2023/12/01 05:05:16;;;;;;;3.33;1.38;;;;;;;10.47;100.00;92627.44;5055399;28;20044;-78
2023/12/01 05:07:45;;;;;;;4.47;1.58;;;;;;;10.40;100.00;92619.03;5051056;28;20045;-78
2023/12/01 05:10:15;;;;;;;3.97;1.65;;;;;;;10.46;100.00;92625.09;5050239;28;20048;-78
2023/12/01 05:12:44;;;;;;;4.35;1.40;;;;;;;10.55;100.00;92634.00;5052692;28;20056;-78
2023/12/01 05:15:15;;;;;;;4.82;1.58;;;;;;;10.56;100.00;92633.03;5067860;28;20050;-78
2023/12/01 05:17:46;;;;;;;4.50;1.67;;;;;;;10.58;100.00;92630.22;5053541;28;20052;-78
2023/12/01 05:20:16;;;;;;;4.10;2.00;;;;;;;10.58;100.00;92632.78;5050231;28;20057;-78
2023/12/01 05:22:49;;;;;;;2.67;1.27;;;;;;;10.49;100.00;92604.09;5052086;28;20980;-78
2023/12/01 05:25:17;;;;;;;3.25;1.40;;;;;;;10.62;100.00;92619.28;5058763;28;20517;-77
2023/12/01 05:27:47;;;;;;;3.42;1.38;;;;;;;10.66;100.00;92625.53;5052212;28;20044;-78
2023/12/01 05:30:19;;;;;;;3.35;1.30;;;;;;;10.67;100.00;92623.75;5063743;28;20044;-78
2023/12/01 05:32:51;;;;;;;5.03;1.70;;;;;;;10.67;100.00;92629.69;5055123;28;20049;-78
2023/12/01 05:35:19;;;;;;;6.10;1.42;;;;;;;10.70;100.00;92623.31;5054942;28;20052;-78
2023/12/01 05:37:49;;;;;;;4.53;1.60;;;;;;;10.72;100.00;92629.00;5058572;28;20049;-78
2023/12/01 05:40:20;;;;;;;5.45;1.40;;;;;;;10.57;100.00;92598.63;5051501;28;20049;-78
2023/12/01 05:42:48;;;;;;;4.35;1.40;;;;;;;10.61;100.00;92589.47;5053550;28;20085;-78
2023/12/01 05:45:16;;;;;;;3.47;1.05;;;;;;;10.91;100.00;92634.00;5051552;28;20057;-78
2023/12/01 05:47:44;;;;;;;2.53;1.05;;;;;;;10.93;100.00;92626.84;5057449;28;20067;-78
2023/12/01 05:50:15;;;;;;;7.90;2.15;;;;;;;10.95;100.00;92629.97;5054912;28;20055;-78
2023/12/01 05:52:43;;;;;;;3.85;2.13;;;;;;;11.06;100.00;92624.03;5050469;28;20053;-78
2023/12/01 05:55:15;;;;;;;4.07;1.40;;;;;;;11.11;100.00;92628.47;5050089;28;20515;-78
2023/12/01 05:57:46;;;;;;;6.45;1.50;;;;;;;11.15;100.00;92611.59;5050034;28;20529;-78
2023/12/01 06:00:15;;;;;;;3.10;1.30;;;;;;;11.20;100.00;92605.78;5056947;28;20049;-78
2023/12/01 06:02:43;;;;;;;4.35;1.60;;;;;;;11.12;100.00;92603.56;5051614;28;20092;-77
2023/12/01 06:05:12;;;;;;;3.03;1.50;;;;;;;11.20;100.00;92605.78;5058893;28;20045;-77
2023/12/01 06:07:43;;;;;;;3.10;1.90;;;;;;;11.25;100.00;92621.28;5063430;28;20052;-78
2023/12/01 06:10:12;;;;;;;4.22;1.08;;;;;;;11.33;100.00;92625.31;5064878;28;20051;-78
2023/12/01 06:12:39;;;;;;;3.20;1.50;;;;;;;11.35;100.00;92623.31;5059039;28;20774;-78
2023/12/01 06:15:09;;;;;;;4.30;1.42;;;;;;;11.32;100.00;92621.97;5058907;28;20373;-78
2023/12/01 06:17:36;;;;;;;4.57;1.77;;;;;;;11.54;100.00;92641.91;5052759;28;20045;-77
2023/12/01 06:20:04;;;;;;;3.92;1.42;;;;;;;11.59;99.76;92648.94;5053111;28;20067;-78
2023/12/01 06:22:30;;;;;;;3.97;1.63;;;;;;;11.49;99.88;92639.25;5058087;28;20104;-78
2023/12/01 06:24:57;;;;;;;4.20;1.65;;;;;;;11.69;99.87;92643.19;5056621;28;20049;-77
2023/12/01 06:27:26;;;;;;;5.47;1.67;;;;;;;11.65;99.71;92649.78;5053556;28;20045;-77
2023/12/01 06:29:53;;;;;;;2.67;1.55;;;;;;;11.67;100.00;92656.25;5050263;28;20052;-77
2023/12/01 06:32:20;;;;;;;2.70;0.95;;;;;;;11.70;99.83;92660.16;5049894;28;20055;-77
2023/12/01 06:34:46;;;;;;;3.10;1.15;;;;;;;11.73;99.57;92662.31;5049695;28;20409;-78
2023/12/01 06:37:13;;;;;;;6.15;1.45;;;;;;;11.66;99.94;92664.25;5049840;28;20045;-78
2023/12/01 06:39:40;;;;;;;3.50;1.00;;;;;;;11.68;100.00;92657.06;5049483;28;21041;-77
2023/12/01 06:42:08;;;;;;;4.32;1.35;;;;;;;11.67;100.00;92658.06;5053102;28;20052;-77
2023/12/01 06:44:37;;;;;;;3.20;1.20;;;;;;;11.55;100.00;92640.09;5050034;28;20499;-78
2023/12/01 06:47:04;;;;;;;5.00;2.00;;;;;;;11.57;100.00;92646.56;5055050;28;20051;-77
2023/12/01 06:49:31;;;;;;;2.95;1.45;;;;;;;11.65;100.00;92648.00;5058507;28;20060;-78
2023/12/01 06:51:59;;;;;;;5.15;1.50;;;;;;;11.60;100.00;92660.78;5049634;28;20055;-78
2023/12/01 06:54:27;;;;;;;3.92;2.00;;;;;;;11.41;100.00;92617.25;5056470;28;20052;-78
2023/12/01 06:56:56;;;;;;;2.15;1.40;;;;;;;11.73;99.89;92670.81;5049997;28;20059;-77
2023/12/01 06:59:22;;;;;;;4.50;2.60;;;;;;;11.73;100.00;92670.00;5050498;28;20056;-78
2023/12/01 07:01:52;;;;;;;4.28;2.08;;;;;;;11.90;99.56;92691.44;5050907;28;20063;-77
2023/12/01 07:04:19;;;;;;;4.70;1.60;;;;;;;11.87;99.54;92693.69;5050185;28;20061;-78
2023/12/01 07:06:47;;;;;;;7.07;3.80;;;;;;;11.98;99.63;92690.28;5050605;28;20055;-78
2023/12/01 07:09:17;;;;;;;8.95;4.95;;;;;;;12.06;99.48;92690.94;5048577;28;20044;-77
2023/12/01 07:11:46;;;;;;;16.58;8.93;;;;;;;12.08;99.29;92687.13;5047785;28;20502;-78
2023/12/01 07:14:13;;;;;;;12.85;6.68;;;;;;;12.09;99.10;92687.91;5054605;28;20059;-78
2023/12/01 07:16:41;;;;;;;7.50;3.85;;;;;;;12.19;98.92;92700.16;5047886;28;20523;-77
2023/12/01 07:19:11;;;;;;;6.38;4.25;;;;;;;12.13;99.06;92697.50;5048829;28;20050;-78
2023/12/01 07:21:38;;;;;;;3.72;1.90;;;;;;;12.23;98.28;92702.03;5050425;28;20063;-78
2023/12/01 07:24:08;;;;;;;3.75;1.20;;;;;;;12.23;98.52;92696.13;5062232;28;20053;-78
2023/12/01 07:26:35;;;;;;;4.15;2.05;;;;;;;12.19;98.44;92698.38;5048942;28;20044;-78
2023/12/01 07:29:04;;;;;;;4.97;3.10;;;;;;;12.24;98.49;92688.19;5047702;28;20413;-78
2023/12/01 07:31:33;;;;;;;5.30;2.38;;;;;;;12.26;98.72;92683.56;5047733;28;20137;-78
2023/12/01 07:34:00;;;;;;;5.28;2.65;;;;;;;12.03;98.76;92646.59;5048224;28;20483;-78
2023/12/01 07:36:29;;;;;;;12.85;5.70;;;;;;;12.37;97.87;92688.88;5048110;28;20052;-78
2023/12/01 07:38:56;;;;;;;3.38;1.52;;;;;;;12.40;97.81;92693.56;5047450;28;20059;-78
2023/12/01 07:41:23;;;;;;;5.15;2.20;;;;;;;12.48;97.25;92702.69;5050570;28;20568;-78
2023/12/01 07:43:52;;;;;;;6.40;2.25;;;;;;;12.45;97.19;92706.50;5050320;28;20053;-78
2023/12/01 07:46:21;;;;;;;9.68;4.80;;;;;;;12.53;97.04;92711.28;5052976;28;20048;-78
2023/12/01 07:48:48;;;;;;;3.67;1.60;;;;;;;12.47;97.19;92704.50;5049503;28;20392;-78
2023/12/01 07:51:16;;;;;;;3.05;1.20;;;;;;;12.36;97.68;92695.81;5047261;28;20059;-77
2023/12/01 07:53:46;;;;;;;3.00;1.33;;;;;;;12.29;98.05;92715.78;5064523;28;20409;-77
2023/12/01 07:56:21;;;;;;;4.65;1.95;;;;;;;12.37;98.06;92707.66;5065492;28;20049;-78
2023/12/01 07:58:50;;;;;;;3.88;1.95;;;;;;;12.41;98.42;92718.31;5060469;28;20040;-78
2023/12/01 08:01:17;;;;;;;5.30;2.92;;;;;;;12.49;98.05;92712.78;5063667;28;20044;-77
2023/12/01 08:03:45;;;;;;;7.28;2.90;;;;;;;12.45;97.59;92711.66;5053433;28;20063;-78
2023/12/01 08:06:13;;;;;;;7.53;3.53;;;;;;;12.51;97.27;92715.88;5047557;28;20525;-78
2023/12/01 08:08:40;;;;;;;5.75;3.00;;;;;;;12.59;97.44;92725.03;5047954;28;20577;-78
2023/12/01 08:11:08;;;;;;;6.45;3.17;;;;;;;12.53;97.18;92719.03;5047166;28;20053;-77
2023/12/01 08:13:36;;;;;;;5.40;2.42;;;;;;;12.59;97.36;92708.81;5047244;28;20047;-78
2023/12/01 08:16:04;;;;;;;5.57;3.35;;;;;;;12.64;96.96;92711.47;5047470;28;20144;-78
2023/12/01 08:18:31;;;;;;;5.07;2.53;;;;;;;12.61;97.12;92715.28;5047100;28;20048;-78
2023/12/01 08:20:58;;;;;;;4.80;2.20;;;;;;;12.59;97.28;92703.66;5048180;28;20124;-78
2023/12/01 08:23:25;;;;;;;3.42;1.77;;;;;;;12.57;98.00;92714.19;5047592;28;20044;-78
2023/12/01 08:25:52;;;;;;;2.22;1.38;;;;;;;12.49;97.90;92705.03;5050066;28;20063;-78
2023/12/01 08:28:21;;;;;;;8.18;2.53;;;;;;;12.47;98.14;92707.09;5047185;28;20053;-77
2023/12/01 08:30:48;;;;;;;3.17;1.60;;;;;;;12.47;98.21;92696.78;5047446;28;20049;-78
2023/12/01 08:33:16;;;;;;;2.53;1.25;;;;;;;12.55;98.33;92704.09;5053305;28;20048;-77
2023/12/01 08:35:43;;;;;;;3.20;0.90;;;;;;;12.65;98.27;92711.19;5060897;28;20106;-78
2023/12/01 08:38:10;;;;;;;6.50;1.30;;;;;;;12.54;97.84;92702.53;5051972;28;20048;-78
2023/12/01 08:40:38;;;;;;;3.95;1.20;;;;;;;12.71;98.02;92714.66;5046848;28;20076;-78
2023/12/01 08:43:05;;;;;;;5.38;2.40;;;;;;;12.76;97.73;92707.00;5048150;28;20036;-77
2023/12/01 08:45:35;;;;;;;2.58;1.63;;;;;;;12.77;97.41;92700.06;5048061;28;20055;-77
2023/12/01 08:48:02;;;;;;;3.63;1.30;;;;;;;12.58;97.58;92673.75;5047068;28;20384;-77
2023/12/01 08:50:29;;;;;;;2.35;1.30;;;;;;;12.70;97.34;92711.28;5052619;28;20134;-78
2023/12/01 08:52:56;;;;;;;2.38;1.17;;;;;;;12.80;97.27;92718.41;5057053;28;20057;-77
2023/12/01 08:55:23;;;;;;;3.28;1.75;;;;;;;12.70;96.94;92703.53;5046969;28;20045;-78
2023/12/01 08:57:50;;;;;;;3.03;1.20;;;;;;;12.74;96.90;92698.72;5046802;28;20059;-78
2023/12/01 09:00:20;;;;;;;3.28;1.20;;;;;;;12.85;96.92;92709.97;5048709;28;20124;-78
2023/12/01 09:02:50;;;;;;;5.00;1.00;;;;;;;12.94;97.20;92715.50;5054357;28;20048;-78
2023/12/01 09:05:18;;;;;;;2.17;0.93;;;;;;;12.95;96.56;92717.84;5050131;28;20052;-77
2023/12/01 09:07:48;;;;;;;1.48;0.80;;;;;;;12.99;96.26;92710.41;5050593;28;20455;-78
2023/12/01 09:10:15;;;;;;;2.80;1.27;;;;;;;13.09;95.61;92723.44;5051632;28;20049;-78
2023/12/01 09:12:43;;;;;;;2.50;0.98;;;;;;;13.14;96.01;92717.56;5052189;28;20052;-77
2023/12/01 09:15:10;;;;;;;2.85;1.08;;;;;;;13.18;95.89;92703.19;5050654;28;20049;-77
2023/12/01 09:17:37;;;;;;;2.53;0.80;;;;;;;13.27;95.38;92700.97;5051751;28;20045;-78
2023/12/01 09:20:09;;;;;;;2.35;1.15;;;;;;;13.25;95.30;92704.81;5050184;28;20417;-77
2023/12/01 09:22:36;;;;;;;3.40;1.10;;;;;;;13.20;95.74;92693.41;5049924;28;20406;-78
2023/12/01 09:25:03;;;;;;;2.95;1.10;;;;;;;13.14;95.78;92688.44;5050036;28;20521;-78
2023/12/01 09:27:30;;;;;;;2.42;0.90;;;;;;;13.33;94.73;92705.19;5049529;28;20053;-77
2023/12/01 09:29:57;;;;;;;3.20;1.38;;;;;;;13.30;95.30;92703.09;5061871;28;20490;-77
2023/12/01 09:32:24;;;;;;;3.92;1.00;;;;;;;13.27;94.75;92700.97;5056840;28;20048;-77
2023/12/01 09:34:51;;;;;;;3.53;1.42;;;;;;;13.31;95.14;92702.06;5050297;28;20106;-77
2023/12/01 09:37:19;;;;;;;2.45;1.10;;;;;;;13.40;94.42;92697.28;5049906;28;20053;-77
2023/12/01 09:39:46;;;;;;;1.92;0.90;;;;;;;13.43;94.57;92688.28;5049831;28;20051;-77
2023/12/01 09:42:16;;;;;;;3.92;1.17;;;;;;;13.34;94.26;92677.59;5049952;28;20459;-78
2023/12/01 09:44:44;;;;;;;3.22;0.95;;;;;;;13.41;95.00;92695.47;5056769;28;20048;-78
2023/12/01 09:47:13;;;;;;;2.05;0.90;;;;;;;13.48;94.62;92693.53;5050925;28;20135;-78
2023/12/01 09:49:40;;;;;;;2.97;0.90;;;;;;;13.43;94.04;92670.22;5054197;28;20503;-78
2023/12/01 09:52:08;;;;;;;3.63;1.25;;;;;;;13.70;94.34;92693.50;5052792;28;20052;-78
2023/12/01 09:54:36;;;;;;;3.30;0.90;;;;;;;13.80;94.32;92672.19;5054020;28;20048;-78
2023/12/01 09:57:06;;;;;;;2.72;1.10;;;;;;;13.80;93.45;92684.31;5053742;28;20052;-78
2023/12/01 09:59:35;;;;;;;7.63;1.90;;;;;;;13.87;93.68;92682.31;5049566;28;20052;-78
2023/12/01 10:02:03;;;;;;;4.47;1.27;;;;;;;13.83;93.30;92687.19;5049578;28;20140;-78
2023/12/01 10:04:30;;;;;;;3.63;1.05;;;;;;;13.88;92.50;92687.25;5058186;28;20044;-78
2023/12/01 10:06:58;;;;;;;5.47;2.42;;;;;;;13.94;93.15;92689.88;5052850;28;20051;-78
2023/12/01 10:09:32;;;;;;;8.68;5.07;;;;;;;13.98;92.67;92696.91;5064440;28;20056;-78
2023/12/01 10:12:11;;;;;;;5.32;3.30;;;;;;;14.04;92.98;92700.31;5059433;28;20122;-78
2023/12/01 10:14:38;;;;;;;3.85;1.83;;;;;;;14.03;92.71;92699.53;5049346;28;20053;-78
2023/12/01 10:17:07;;;;;;;3.58;1.15;;;;;;;14.06;92.76;92690.53;5049491;28;20051;-78
2023/12/01 10:19:45;;;;;;;6.90;1.75;;;;;;;14.10;92.73;92688.22;5049227;28;20053;-78
2023/12/01 10:22:13;;;;;;;4.68;0.93;;;;;;;14.09;92.75;92690.03;5061410;28;20068;-78
2023/12/01 10:24:40;;;;;;;5.22;1.13;;;;;;;14.09;93.33;92684.09;5049410;28;20061;-77
2023/12/01 10:27:09;;;;;;;2.90;1.20;;;;;;;14.18;92.45;92692.97;5049130;28;20521;-78
2023/12/01 10:29:39;;;;;;;6.75;1.30;;;;;;;14.24;92.36;92683.44;5048694;28;20056;-78
2023/12/01 10:32:11;;;;;;;5.32;1.77;;;;;;;14.43;92.52;92695.00;5050663;28;20056;-78
2023/12/01 10:34:38;;;;;;;3.65;1.10;;;;;;;14.48;91.93;92689.06;5052830;28;20052;-78
2023/12/01 10:37:06;;;;;;;5.28;1.48;;;;;;;14.62;91.38;92696.44;5065314;28;20045;-79
2023/12/01 10:39:33;;;;;;;5.25;1.50;;;;;;;14.65;90.84;92688.16;5064281;28;20078;-78
2023/12/01 10:42:01;;;;;;;5.45;2.10;;;;;;;14.78;91.18;92682.63;5055122;28;20055;-77
2023/12/01 10:44:29;;;;;;;10.93;1.70;;;;;;;14.83;90.79;92671.53;5048871;28;20045;-77
2023/12/01 10:46:57;;;;;;;4.55;1.52;;;;;;;14.85;90.53;92671.28;5048724;28;20070;-77
2023/12/01 10:49:24;;;;;;;4.35;1.83;;;;;;;14.95;89.61;92681.69;5050550;28;20532;-77
2023/12/01 10:51:52;;;;;;;10.68;5.93;;;;;;;14.82;89.49;92670.72;5064608;28;20611;-78
2023/12/01 10:54:23;;;;;;;13.38;4.90;;;;;;;14.91;89.51;92663.28;5051521;28;20510;-78
2023/12/01 10:56:57;;;;;;;21.27;9.60;;;;;;;14.86;89.63;92667.66;5049362;28;20044;-78
2023/12/01 10:59:27;;;;;;;36.53;19.00;;;;;;;14.67;90.08;92645.53;5049511;28;20601;-78
2023/12/01 11:01:56;;;;;;;10.65;5.00;;;;;;;14.79;89.70;92680.78;5053743;28;20063;-79
2023/12/01 11:04:26;;;;;;;13.68;7.00;;;;;;;14.87;89.95;92680.34;5062401;28;20045;-78
2023/12/01 11:07:13;;;;;;;5.63;2.60;;;;;;;14.82;89.30;92660.38;5055320;28;20110;-78
2023/12/01 11:09:56;;;;;;;4.38;2.03;;;;;;;14.79;90.16;92678.22;5055673;28;20139;-78
2023/12/01 11:12:30;;;;;;;7.45;1.52;;;;;;;14.77;90.19;92675.88;5053455;28;20049;-78
2023/12/01 11:15:11;;;;;;;6.57;2.53;;;;;;;14.75;89.98;92661.63;5048829;28;20052;-78
2023/12/01 11:17:40;;;;;;;3.67;1.80;;;;;;;14.60;90.86;92642.41;5047900;28;20520;-77
2023/12/01 11:20:34;;;;;;;3.60;2.00;;;;;;;14.70;89.98;92650.22;5050248;28;20115;-78
2023/12/01 11:23:06;;;;;;;4.93;1.75;;;;;;;14.66;90.82;92645.78;5052863;28;20494;-78
2023/12/01 11:25:43;;;;;;;3.55;1.60;;;;;;;14.61;90.57;92649.13;5047754;28;20228;-78
2023/12/01 11:28:21;;;;;;;5.55;1.50;;;;;;;14.63;91.03;92648.88;5051516;28;20522;-78
2023/12/01 11:31:00;;;;;;;8.38;1.92;;;;;;;14.61;90.78;92656.88;5050776;28;20462;-78
2023/12/01 11:33:33;;;;;;;3.92;1.75;;;;;;;14.56;90.54;92642.13;5048885;28;21192;-77
2023/12/01 11:36:25;;;;;;;2.65;1.48;;;;;;;14.60;90.74;92657.91;5050848;28;20049;-78
2023/12/01 11:39:17;;;;;;;5.43;2.25;;;;;;;14.62;91.12;92650.66;5048195;28;20545;-78